Time;durP1;ratioP1;P1;durP2;ratioP2;P2;SDS_P1;SDS_P2;PMS_P1;PMS_P2;Temp;Humidity;BMP_temperature;BMP_pressure;BME280_temperature;BME280_humidity;BME280_pressure;Samples;Min_cycle;Max_cycle;Signal;HPM_P1;HPM_P2
2023/01/08 00:01:29;;;;;;;7.80;7.60;;;4.00;99.90;;;;;;5017596;28;20234;-78
2023/01/08 00:03:59;;;;;;;7.90;7.70;;;4.00;99.90;;;;;;5018195;28;20264;-78
2023/01/08 00:06:27;;;;;;;7.80;7.60;;;4.00;99.90;;;;;;5020519;28;20231;-78
2023/01/08 00:08:55;;;;;;;7.70;7.50;;;4.00;99.90;;;;;;5019798;28;20224;-78
2023/01/08 00:11:23;;;;;;;7.70;7.50;;;4.00;99.90;;;;;;5019964;28;20247;-78
2023/01/08 00:13:51;;;;;;;7.60;7.40;;;4.00;99.90;;;;;;5018720;28;20234;-78
2023/01/08 00:16:20;;;;;;;7.70;7.50;;;4.00;99.90;;;;;;5019060;28;20298;-78
2023/01/08 00:18:47;;;;;;;7.67;7.47;;;4.00;99.90;;;;;;5019266;28;20228;-78
2023/01/08 00:21:16;;;;;;;7.80;7.60;;;3.90;99.90;;;;;;5018767;28;20232;-77
2023/01/08 00:23:44;;;;;;;7.60;7.40;;;4.00;99.90;;;;;;5019970;28;20250;-77
2023/01/08 00:26:21;;;;;;;7.70;7.50;;;3.90;99.90;;;;;;5091652;22;20262;-88
2023/01/08 00:31:38;;;;;;;7.60;7.40;;;3.90;99.90;;;;;;5031662;28;20727;-88
2023/01/08 00:34:29;;;;;;;7.57;7.37;;;3.80;99.90;;;;;;5043019;28;20219;-88
2023/01/08 00:37:17;;;;;;;7.70;7.50;;;3.80;99.90;;;;;;5033490;28;20288;-90
2023/01/08 00:40:03;;;;;;;7.80;7.60;;;3.80;99.90;;;;;;5041096;28;20208;-88
2023/01/08 00:43:05;;;;;;;7.50;7.30;;;3.90;99.90;;;;;;5028960;28;20331;-88
2023/01/08 00:45:46;;;;;;;7.60;7.40;;;3.90;99.90;;;;;;5040644;28;20216;-89
2023/01/08 00:48:39;;;;;;;7.80;7.60;;;3.90;99.90;;;;;;5044144;28;20220;-88
2023/01/08 00:51:25;;;;;;;7.57;7.37;;;3.80;99.90;;;;;;5042264;28;20243;-88
2023/01/08 00:54:02;;;;;;;7.60;7.40;;;3.80;99.90;;;;;;5023325;28;20231;-88
2023/01/08 00:56:32;;;;;;;7.60;7.40;;;3.80;99.90;;;;;;5021466;28;20240;-88
2023/01/08 00:59:11;;;;;;;7.50;7.30;;;3.80;99.90;;;;;;5021178;28;20276;-88
2023/01/08 01:04:51;;;;;;;7.70;7.50;;;3.80;99.90;;;;;;5015434;28;20232;-88
2023/01/08 01:07:38;;;;;;;7.70;7.50;;;3.80;99.90;;;;;;5020871;28;20239;-88
2023/01/08 01:10:44;;;;;;;7.80;7.60;;;3.80;99.90;;;;;;5021667;28;20287;-88
2023/01/08 01:13:19;;;;;;;7.60;7.40;;;3.70;99.90;;;;;;5030241;28;20204;-88
2023/01/08 01:16:09;;;;;;;7.90;7.70;;;3.80;99.90;;;;;;5043531;28;20232;-90
2023/01/08 01:18:48;;;;;;;7.80;7.60;;;3.70;99.90;;;;;;5036871;28;20224;-88
2023/01/08 01:21:27;;;;;;;7.83;7.63;;;3.70;99.90;;;;;;5026037;28;20257;-88
2023/01/08 01:24:13;;;;;;;7.80;7.60;;;3.80;99.90;;;;;;5024050;28;20231;-88
2023/01/08 01:28:04;;;;;;;7.90;7.70;;;3.70;99.90;;;;;;5024610;28;20259;-88
2023/01/08 01:31:09;;;;;;;7.90;7.70;;;3.70;99.90;;;;;;5011671;28;20236;-88
2023/01/08 01:33:56;;;;;;;7.87;7.67;;;3.70;99.90;;;;;;5001303;28;20236;-88
2023/01/08 01:36:32;;;;;;;7.70;7.50;;;3.70;99.90;;;;;;5000663;28;20239;-88
2023/01/08 01:42:43;;;;;;;7.90;7.70;;;3.60;99.90;;;;;;5000630;28;20232;-88
2023/01/08 01:45:42;;;;;;;7.63;7.43;;;3.70;99.90;;;;;;4996792;28;20339;-88
2023/01/08 01:48:26;;;;;;;7.77;7.57;;;3.70;99.90;;;;;;5003135;28;20233;-89
2023/01/08 01:51:06;;;;;;;7.80;7.60;;;3.70;99.90;;;;;;5022144;28;20243;-91
2023/01/08 01:53:48;;;;;;;7.87;7.67;;;3.70;99.90;;;;;;5001456;28;20299;-88
2023/01/08 01:56:30;;;;;;;7.60;7.40;;;3.70;99.90;;;;;;5000433;28;20243;-86
2023/01/08 01:59:08;;;;;;;7.63;7.43;;;3.70;99.90;;;;;;5001167;28;20235;-87
2023/01/08 02:02:06;;;;;;;7.77;7.57;;;3.70;99.90;;;;;;5001822;28;20303;-86
2023/01/08 02:04:44;;;;;;;7.70;7.50;;;3.70;99.90;;;;;;5000915;28;20309;-87
2023/01/08 02:07:29;;;;;;;7.70;7.50;;;3.60;99.90;;;;;;5002441;28;20239;-87
2023/01/08 02:13:12;;;;;;;7.53;7.33;;;3.60;99.90;;;;;;5000640;28;20232;-88
2023/01/08 02:22:03;;;;;;;7.80;7.60;;;3.50;99.90;;;;;;5000008;28;20340;-87
2023/01/08 02:24:53;;;;;;;7.70;7.50;;;3.50;99.90;;;;;;5000248;28;20228;-87
2023/01/08 02:37:04;;;;;;;7.60;7.40;;;3.60;99.90;;;;;;4999261;28;20229;-87
2023/01/08 02:46:35;;;;;;;7.90;7.70;;;3.50;99.90;;;;;;5021042;28;20244;-88
2023/01/08 02:53:13;;;;;;;7.90;7.70;;;3.50;99.90;;;;;;5000218;28;20604;-87
2023/01/08 02:59:56;;;;;;;8.00;7.80;;;3.50;99.90;;;;;;4964574;28;20260;-86
2023/01/08 03:02:55;;;;;;;7.83;7.63;;;3.40;99.90;;;;;;4999872;28;20232;-87
2023/01/08 03:24:52;;;;;;;;;;;;;;;;;;;;;
2023/01/08 03:34:07;;;;;;;7.50;7.30;;;3.30;99.90;;;;;;4998979;28;20236;-88
2023/01/08 03:40:21;;;;;;;7.70;7.50;;;3.20;99.90;;;;;;5010050;28;20205;-88
2023/01/08 03:53:02;;;;;;;;;;;;;;;;;;;;;
2023/01/08 03:55:45;;;;;;;7.60;7.40;;;3.20;99.90;;;;;;4979808;28;20251;-88
2023/01/08 03:59:17;;;;;;;7.60;7.40;;;3.30;99.90;;;;;;4997658;28;20228;-88
2023/01/08 04:15:01;;;;;;;7.70;7.50;;;3.50;99.90;;;;;;4999219;28;20248;-88
2023/01/08 04:20:37;;;;;;;7.40;7.20;;;3.50;99.90;;;;;;5011805;28;20213;-88
2023/01/08 04:25:59;;;;;;;7.40;7.20;;;3.60;99.90;;;;;;5015965;28;20288;-89
2023/01/08 04:28:36;;;;;;;7.40;7.20;;;3.70;99.90;;;;;;5011110;28;20301;-88
2023/01/08 04:31:14;;;;;;;7.30;7.10;;;3.70;99.90;;;;;;4998956;28;20335;-88
2023/01/08 04:34:01;;;;;;;7.60;7.40;;;3.80;99.90;;;;;;4999166;28;20237;-88
2023/01/08 04:39:28;;;;;;;7.47;7.27;;;3.90;99.90;;;;;;4998382;28;20224;-88
2023/01/08 04:41:56;;;;;;;7.37;7.17;;;3.90;99.90;;;;;;5013179;28;20232;-88
2023/01/08 04:44:38;;;;;;;7.60;7.40;;;3.90;99.90;;;;;;4998583;28;20319;-88
2023/01/08 04:50:11;;;;;;;7.57;7.37;;;3.80;99.90;;;;;;4998920;28;20241;-89
2023/01/08 04:55:50;;;;;;;7.70;7.50;;;3.80;99.90;;;;;;5005794;28;20316;-89
2023/01/08 04:58:56;;;;;;;7.47;7.27;;;3.80;99.90;;;;;;5017396;28;20228;-88
2023/01/08 05:01:46;;;;;;;7.70;7.50;;;3.80;99.90;;;;;;4998526;28;20225;-88
2023/01/08 05:04:22;;;;;;;7.70;7.50;;;3.70;99.90;;;;;;4998363;28;20284;-88
2023/01/08 05:06:58;;;;;;;7.70;7.50;;;3.70;99.90;;;;;;4998348;28;20324;-88
2023/01/08 05:09:29;;;;;;;7.70;7.50;;;3.60;99.90;;;;;;5000314;28;20324;-88
2023/01/08 05:12:08;;;;;;;7.60;7.40;;;3.70;99.90;;;;;;5001481;28;20228;-88
2023/01/08 05:17:32;;;;;;;7.50;7.30;;;3.70;99.90;;;;;;4989250;28;20766;-88
2023/01/08 05:20:01;;;;;;;7.50;7.30;;;3.70;99.90;;;;;;5001253;28;20715;-89
2023/01/08 05:23:02;;;;;;;7.57;7.37;;;3.70;99.90;;;;;;5001801;28;20225;-88
2023/01/08 05:25:36;;;;;;;7.63;7.43;;;3.70;99.90;;;;;;5004006;28;20237;-88
2023/01/08 05:28:17;;;;;;;7.70;7.50;;;3.70;99.90;;;;;;5001482;28;20231;-88
2023/01/08 05:31:12;;;;;;;7.53;7.33;;;3.70;99.90;;;;;;5003346;28;20293;-89
2023/01/08 05:34:00;;;;;;;7.70;7.50;;;3.70;99.90;;;;;;5001970;28;20384;-88
2023/01/08 05:36:44;;;;;;;7.77;7.57;;;3.70;99.90;;;;;;5001295;28;20248;-89
2023/01/08 05:39:28;;;;;;;7.77;7.57;;;3.70;99.90;;;;;;5001473;28;20237;-88
2023/01/08 05:42:06;;;;;;;7.70;7.50;;;3.70;99.90;;;;;;5013855;28;20276;-89
2023/01/08 05:51:04;;;;;;;7.70;7.50;;;3.60;99.90;;;;;;5022906;28;20215;-89
2023/01/08 05:53:58;;;;;;;7.83;7.63;;;3.60;99.90;;;;;;5023288;28;20219;-90
2023/01/08 05:57:01;;;;;;;7.60;7.40;;;3.60;99.90;;;;;;5018158;28;20259;-88
2023/01/08 06:02:44;;;;;;;7.60;7.40;;;3.70;99.90;;;;;;5004680;28;20221;-88
2023/01/08 06:06:05;;;;;;;7.80;7.60;;;3.70;99.90;;;;;;5002753;28;20236;-88
2023/01/08 06:25:40;;;;;;;7.80;7.60;;;3.70;99.90;;;;;;5032338;23;20274;-78
2023/01/08 06:28:07;;;;;;;7.70;7.50;;;3.70;99.90;;;;;;5039021;28;20232;-79
2023/01/08 06:30:35;;;;;;;7.97;7.77;;;3.80;99.90;;;;;;5037295;28;20279;-78
2023/01/08 06:33:03;;;;;;;7.70;7.50;;;3.80;99.90;;;;;;5022095;28;20290;-78
2023/01/08 06:35:30;;;;;;;7.80;7.60;;;3.80;99.90;;;;;;5040013;28;20266;-78
2023/01/08 06:37:59;;;;;;;7.80;7.60;;;3.90;99.90;;;;;;5040257;28;20281;-78
2023/01/08 06:40:27;;;;;;;7.80;7.60;;;3.90;99.90;;;;;;5039930;28;20228;-78
2023/01/08 06:42:54;;;;;;;7.83;7.63;;;3.90;99.90;;;;;;5040590;28;20231;-78
2023/01/08 06:45:22;;;;;;;7.70;7.50;;;3.90;99.90;;;;;;5039030;28;20270;-78
2023/01/08 06:47:49;;;;;;;7.90;7.70;;;3.90;99.90;;;;;;5039161;28;20319;-78
2023/01/08 06:50:17;;;;;;;7.70;7.50;;;3.90;99.90;;;;;;5039317;28;20227;-77
2023/01/08 06:52:44;;;;;;;7.67;7.47;;;3.90;99.90;;;;;;5038874;28;20327;-77
2023/01/08 06:55:14;;;;;;;7.87;7.67;;;3.90;99.90;;;;;;5039525;28;20259;-78
2023/01/08 06:57:41;;;;;;;7.90;7.70;;;4.00;99.90;;;;;;5038939;28;20227;-79
2023/01/08 07:00:10;;;;;;;7.73;7.53;;;4.00;99.90;;;;;;5039071;28;20313;-78
2023/01/08 07:02:38;;;;;;;8.03;7.83;;;4.00;99.90;;;;;;5038348;28;20278;-78
2023/01/08 07:05:06;;;;;;;7.90;7.70;;;4.00;99.90;;;;;;5037488;28;20235;-78
2023/01/08 07:07:33;;;;;;;8.10;7.90;;;4.00;99.90;;;;;;5038754;28;20232;-78
2023/01/08 07:10:01;;;;;;;8.23;8.03;;;4.00;99.90;;;;;;5038764;28;20230;-77
2023/01/08 07:12:30;;;;;;;7.97;7.77;;;4.00;99.90;;;;;;5038297;28;20314;-77
2023/01/08 07:14:57;;;;;;;8.10;7.90;;;4.00;99.90;;;;;;5034691;28;20235;-78
2023/01/08 07:17:25;;;;;;;7.87;7.67;;;4.00;99.90;;;;;;5038735;28;20283;-77
2023/01/08 07:19:52;;;;;;;8.10;7.90;;;4.00;99.90;;;;;;5038547;28;20227;-78
2023/01/08 07:22:21;;;;;;;8.00;7.80;;;4.10;99.90;;;;;;5037809;28;20242;-78
2023/01/08 07:24:48;;;;;;;8.03;7.83;;;4.10;99.90;;;;;;5038162;28;20320;-77
2023/01/08 07:27:16;;;;;;;8.00;7.80;;;4.10;99.90;;;;;;5037281;28;20323;-78
2023/01/08 07:29:45;;;;;;;7.90;7.70;;;4.10;99.90;;;;;;5038374;28;20219;-77
2023/01/08 07:32:12;;;;;;;7.80;7.60;;;4.10;99.90;;;;;;5037955;28;20269;-78
2023/01/08 07:34:39;;;;;;;8.00;7.80;;;4.10;99.90;;;;;;5037574;28;20290;-78
2023/01/08 07:37:07;;;;;;;7.90;7.70;;;4.10;99.90;;;;;;5037777;28;20282;-78
2023/01/08 07:39:35;;;;;;;8.00;7.80;;;4.10;99.90;;;;;;5038359;28;20330;-78
2023/01/08 07:42:02;;;;;;;8.10;7.90;;;4.10;99.90;;;;;;5038270;28;20231;-78
2023/01/08 07:44:29;;;;;;;8.10;7.90;;;4.10;99.90;;;;;;5037673;28;20684;-78
2023/01/08 07:46:58;;;;;;;8.10;7.90;;;4.10;99.90;;;;;;5038157;28;20236;-78
2023/01/08 07:49:26;;;;;;;8.00;7.80;;;4.10;99.90;;;;;;5037574;28;20222;-78
2023/01/08 07:51:53;;;;;;;7.90;7.70;;;4.10;99.90;;;;;;5037744;28;20258;-78
2023/01/08 07:54:21;;;;;;;8.20;8.00;;;4.20;99.90;;;;;;5038340;28;20242;-78
2023/01/08 07:56:48;;;;;;;8.17;7.97;;;4.20;99.90;;;;;;5036746;28;20397;-78
2023/01/08 07:59:16;;;;;;;8.00;7.80;;;4.20;99.90;;;;;;5037658;28;20318;-78
2023/01/08 08:01:43;;;;;;;8.00;7.80;;;4.20;99.90;;;;;;5038570;28;20231;-78
2023/01/08 08:04:15;;;;;;;7.90;7.70;;;4.20;99.90;;;;;;5039185;28;20263;-78
2023/01/08 08:06:43;;;;;;;7.97;7.77;;;4.20;99.90;;;;;;5039507;28;20246;-77
2023/01/08 08:09:10;;;;;;;8.10;7.90;;;4.10;99.90;;;;;;5038075;28;20243;-77
2023/01/08 08:11:38;;;;;;;8.00;7.80;;;4.20;99.90;;;;;;5036487;28;20233;-77
2023/01/08 08:14:06;;;;;;;8.10;7.90;;;4.20;99.90;;;;;;5036409;28;20243;-77
2023/01/08 08:16:33;;;;;;;8.10;7.90;;;4.20;99.90;;;;;;5036178;28;20235;-77
2023/01/08 08:19:01;;;;;;;7.83;7.63;;;4.20;99.90;;;;;;5036319;28;20784;-77
2023/01/08 08:21:30;;;;;;;7.57;7.37;;;4.30;99.90;;;;;;5036662;28;20238;-77
2023/01/08 08:23:58;;;;;;;8.00;7.80;;;4.30;99.90;;;;;;5036721;28;20223;-77
2023/01/08 08:26:25;;;;;;;8.10;7.90;;;4.30;99.90;;;;;;5044407;28;20341;-77
2023/01/08 08:28:53;;;;;;;8.10;7.90;;;4.40;99.90;;;;;;5042516;28;20227;-79
2023/01/08 08:31:20;;;;;;;8.33;8.13;;;4.40;99.90;;;;;;5038300;28;20228;-78
2023/01/08 08:33:47;;;;;;;8.50;8.30;;;4.50;99.90;;;;;;5036873;28;20249;-78
2023/01/08 08:36:15;;;;;;;8.37;8.17;;;4.60;99.90;;;;;;5036164;28;20239;-78
2023/01/08 08:38:44;;;;;;;8.30;8.10;;;4.60;99.90;;;;;;5036581;28;20267;-77
2023/01/08 08:41:11;;;;;;;8.40;8.20;;;4.70;99.90;;;;;;5036655;28;20255;-77
2023/01/08 08:43:39;;;;;;;8.50;8.30;;;4.80;99.90;;;;;;5036919;28;20314;-79
2023/01/08 08:46:06;;;;;;;8.60;8.40;;;4.80;99.90;;;;;;5040591;28;20362;-77
2023/01/08 08:48:34;;;;;;;8.60;8.40;;;4.90;99.90;;;;;;5047606;28;20241;-77
2023/01/08 08:51:01;;;;;;;8.70;8.50;;;4.90;99.90;;;;;;5057300;28;20220;-77
2023/01/08 08:53:29;;;;;;;9.00;8.70;;;5.00;99.90;;;;;;5061726;28;20238;-77
2023/01/08 08:56:00;;;;;;;8.57;8.37;;;5.10;99.90;;;;;;5060837;28;20247;-78
2023/01/08 08:58:27;;;;;;;8.80;8.60;;;5.20;99.90;;;;;;5061300;28;20226;-78
2023/01/08 09:00:55;;;;;;;8.60;8.40;;;5.30;99.90;;;;;;5060329;28;20231;-78
2023/01/08 09:03:22;;;;;;;8.80;8.60;;;5.40;99.90;;;;;;5059957;28;20251;-78
2023/01/08 09:05:50;;;;;;;9.30;9.00;;;5.50;99.90;;;;;;5058290;28;20242;-78
2023/01/08 09:08:20;;;;;;;8.50;8.30;;;5.60;99.90;;;;;;5057678;28;20212;-78
2023/01/08 09:10:48;;;;;;;8.37;8.17;;;5.80;99.90;;;;;;5052729;28;20238;-79
2023/01/08 09:13:17;;;;;;;8.50;8.30;;;5.90;99.90;;;;;;5054234;28;20235;-79
2023/01/08 09:15:45;;;;;;;8.73;8.53;;;5.90;99.90;;;;;;5051730;28;20239;-79
2023/01/08 09:18:12;;;;;;;8.37;8.17;;;5.90;99.90;;;;;;5046532;28;20748;-79
2023/01/08 09:20:40;;;;;;;8.40;8.20;;;5.90;99.90;;;;;;5041840;28;20322;-79
2023/01/08 09:23:07;;;;;;;8.60;8.40;;;5.90;99.90;;;;;;5041276;28;20263;-80
2023/01/08 09:25:35;;;;;;;8.70;8.50;;;6.00;99.90;;;;;;5040550;28;20292;-80
2023/01/08 09:28:05;;;;;;;8.30;8.10;;;6.00;99.90;;;;;;5040782;28;20227;-80
2023/01/08 09:30:35;;;;;;;8.30;8.10;;;6.10;99.90;;;;;;5042792;28;20263;-81
2023/01/08 09:33:04;;;;;;;8.50;8.30;;;6.10;99.90;;;;;;5045221;28;20291;-80
2023/01/08 09:35:33;;;;;;;8.67;8.47;;;6.10;99.90;;;;;;5047459;28;20235;-81
2023/01/08 09:38:01;;;;;;;8.60;8.40;;;6.20;99.90;;;;;;5047794;28;20323;-79
2023/01/08 09:40:35;;;;;;;8.60;8.40;;;6.20;99.90;;;;;;5047565;28;20246;-80
2023/01/08 09:43:05;;;;;;;8.67;8.47;;;6.20;99.90;;;;;;5046616;28;20232;-81
2023/01/08 09:45:37;;;;;;;8.70;8.50;;;6.20;99.90;;;;;;5045883;28;20235;-80
2023/01/08 09:48:14;;;;;;;8.70;8.50;;;6.20;99.90;;;;;;5045100;28;20235;-80
2023/01/08 09:50:42;;;;;;;9.00;8.70;;;6.20;99.90;;;;;;5045075;28;20306;-80
2023/01/08 09:53:14;;;;;;;9.17;8.87;;;6.30;99.90;;;;;;5045873;28;20238;-80
2023/01/08 09:55:42;;;;;;;9.30;9.00;;;6.30;99.90;;;;;;5045196;28;20240;-80
2023/01/08 09:58:24;;;;;;;9.10;8.80;;;6.40;99.90;;;;;;5046447;28;20240;-80
2023/01/08 10:00:53;;;;;;;9.00;8.70;;;6.40;99.90;;;;;;5044452;28;20302;-80
2023/01/08 10:03:21;;;;;;;8.60;8.40;;;6.50;99.90;;;;;;5044813;28;20255;-79
2023/01/08 10:05:49;;;;;;;8.63;8.43;;;6.50;99.90;;;;;;5043169;28;20296;-81
2023/01/08 10:08:16;;;;;;;8.90;8.60;;;6.60;99.90;;;;;;5025178;28;20216;-80
2023/01/08 10:10:45;;;;;;;8.70;8.50;;;6.70;99.90;;;;;;5025539;28;20255;-80
2023/01/08 10:13:14;;;;;;;8.87;8.60;;;6.70;99.90;;;;;;5024980;28;20236;-81
2023/01/08 10:15:42;;;;;;;8.70;8.50;;;6.70;99.90;;;;;;5023941;28;20314;-80
2023/01/08 10:18:15;;;;;;;8.40;8.20;;;6.70;99.90;;;;;;5023910;28;20220;-80
2023/01/08 10:20:43;;;;;;;8.73;8.53;;;6.70;99.90;;;;;;5024966;28;20255;-80
2023/01/08 10:23:13;;;;;;;8.70;8.50;;;6.70;99.90;;;;;;5025271;28;20286;-82
2023/01/08 10:25:52;;;;;;;8.70;8.50;;;6.70;99.90;;;;;;5031283;28;20256;-80
2023/01/08 10:28:22;;;;;;;8.40;8.20;;;6.70;99.90;;;;;;5030258;28;20240;-80
2023/01/08 10:30:52;;;;;;;8.60;8.40;;;6.70;99.90;;;;;;5027135;28;20300;-80
2023/01/08 10:33:25;;;;;;;8.80;8.60;;;6.70;99.90;;;;;;5027011;28;20240;-80
2023/01/08 10:35:59;;;;;;;8.47;8.27;;;6.80;99.90;;;;;;5025557;28;20232;-82
2023/01/08 10:38:32;;;;;;;8.40;8.20;;;6.80;99.90;;;;;;5024094;28;20314;-80
2023/01/08 10:41:01;;;;;;;8.40;8.20;;;6.90;99.90;;;;;;5026349;28;20315;-81
2023/01/08 10:43:35;;;;;;;8.27;8.07;;;6.90;99.90;;;;;;5026751;28;20324;-81
2023/01/08 10:46:05;;;;;;;8.60;8.40;;;7.00;99.90;;;;;;5023642;28;20240;-80
2023/01/08 10:48:39;;;;;;;8.70;8.50;;;7.00;99.90;;;;;;5022995;28;20247;-80
2023/01/08 10:51:17;;;;;;;8.30;8.10;;;7.00;99.90;;;;;;5024941;28;20234;-80
2023/01/08 10:53:45;;;;;;;8.10;7.90;;;6.90;99.90;;;;;;5028469;28;20247;-80
2023/01/08 10:56:25;;;;;;;8.10;7.90;;;6.90;99.90;;;;;;5023671;28;20228;-80
2023/01/08 10:58:53;;;;;;;8.00;7.80;;;6.80;99.90;;;;;;5022544;28;20228;-80
2023/01/08 11:01:25;;;;;;;8.00;7.80;;;6.80;99.90;;;;;;5024354;28;20236;-78
2023/01/08 11:03:57;;;;;;;8.07;7.87;;;6.80;99.90;;;;;;5023608;28;20267;-80
2023/01/08 11:06:28;;;;;;;7.87;7.67;;;6.70;99.90;;;;;;5023042;28;20251;-80
2023/01/08 11:08:59;;;;;;;8.00;7.80;;;6.60;99.90;;;;;;5024071;28;20216;-80
2023/01/08 11:11:34;;;;;;;8.20;8.00;;;6.60;99.90;;;;;;5024247;28;20252;-79
2023/01/08 11:14:05;;;;;;;8.20;8.00;;;6.70;99.90;;;;;;5024135;28;20247;-80
2023/01/08 11:16:36;;;;;;;8.20;8.00;;;6.70;99.90;;;;;;5023779;28;20236;-78
2023/01/08 11:19:16;;;;;;;8.10;7.90;;;6.70;99.90;;;;;;5024721;28;20276;-81
2023/01/08 11:21:55;;;;;;;8.00;7.80;;;6.70;99.90;;;;;;5025074;28;20270;-79
2023/01/08 11:24:27;;;;;;;7.90;7.70;;;6.70;99.90;;;;;;5025203;28;20291;-80
2023/01/08 11:27:00;;;;;;;7.87;7.67;;;6.80;99.90;;;;;;5023721;28;20294;-80
2023/01/08 11:29:37;;;;;;;7.83;7.63;;;6.80;99.90;;;;;;5042743;28;20283;-83
2023/01/08 11:32:31;;;;;;;8.00;7.80;;;6.90;99.90;;;;;;5043576;28;20224;-81
2023/01/08 11:35:06;;;;;;;8.10;7.90;;;6.90;99.90;;;;;;5042717;28;20227;-81
2023/01/08 11:37:37;;;;;;;8.10;7.90;;;7.00;99.90;;;;;;5045087;28;20227;-80
2023/01/08 11:40:15;;;;;;;7.90;7.70;;;6.90;99.90;;;;;;5045761;28;20219;-80
2023/01/08 11:43:12;;;;;;;7.60;7.40;;;6.90;99.90;;;;;;5046935;28;20215;-78
2023/01/08 11:45:55;;;;;;;7.43;7.23;;;6.80;99.90;;;;;;5039778;28;20797;-79
2023/01/08 11:48:46;;;;;;;7.40;7.20;;;6.80;99.90;;;;;;5040860;28;20229;-79
2023/01/08 11:51:49;;;;;;;7.50;7.30;;;6.70;99.90;;;;;;5049604;28;20220;-79
2023/01/08 11:54:36;;;;;;;7.30;7.10;;;6.60;99.90;;;;;;5039119;28;20295;-81
2023/01/08 11:57:25;;;;;;;7.57;7.37;;;6.60;99.90;;;;;;5040961;28;20246;-80
2023/01/08 12:00:10;;;;;;;7.43;7.23;;;6.60;99.90;;;;;;5042791;28;20228;-80
2023/01/08 12:02:52;;;;;;;7.60;7.40;;;6.70;99.90;;;;;;5043826;28;20979;-81
2023/01/08 12:05:29;;;;;;;7.60;7.40;;;6.60;99.90;;;;;;5044318;28;20265;-80
2023/01/08 12:08:03;;;;;;;7.50;7.30;;;6.70;99.90;;;;;;5044491;28;20239;-80
2023/01/08 12:10:44;;;;;;;7.87;7.67;;;6.60;99.90;;;;;;5047298;28;20266;-80
2023/01/08 12:13:32;;;;;;;7.90;7.70;;;6.60;99.90;;;;;;5059518;28;20226;-80
2023/01/08 12:16:15;;;;;;;8.00;7.80;;;6.60;99.90;;;;;;5050877;28;20225;-79
2023/01/08 12:19:03;;;;;;;7.90;7.70;;;6.60;99.90;;;;;;5047619;28;20258;-82
2023/01/08 12:21:34;;;;;;;7.80;7.60;;;6.60;99.90;;;;;;5049016;28;20254;-80
2023/01/08 12:24:19;;;;;;;7.80;7.60;;;6.60;99.90;;;;;;5051990;28;20235;-80
2023/01/08 12:34:09;;;;;;;7.33;7.13;;;6.70;99.90;;;;;;4987075;28;20278;-85
2023/01/08 12:36:46;;;;;;;7.10;6.90;;;6.80;99.90;;;;;;4971112;28;20241;-84
2023/01/08 12:39:35;;;;;;;7.10;6.90;;;6.80;99.90;;;;;;5037938;28;20330;-85
2023/01/08 12:42:14;;;;;;;7.17;6.97;;;6.80;99.90;;;;;;5045009;28;20236;-84
2023/01/08 12:44:51;;;;;;;7.37;7.17;;;6.80;99.90;;;;;;5044620;28;20373;-85
2023/01/08 12:47:28;;;;;;;7.40;7.20;;;6.80;99.90;;;;;;5044483;28;20227;-84
2023/01/08 12:50:09;;;;;;;7.50;7.30;;;6.80;99.90;;;;;;5043810;28;20238;-84
2023/01/08 12:52:57;;;;;;;7.30;7.10;;;6.90;99.90;;;;;;5042593;28;20227;-85
2023/01/08 12:55:53;;;;;;;7.43;7.23;;;6.90;99.90;;;;;;5042044;28;20219;-86
2023/01/08 13:02:18;;;;;;;7.30;7.10;;;7.00;99.90;;;;;;5048299;28;20240;-84
2023/01/08 13:05:36;;;;;;;7.60;7.40;;;7.00;99.90;;;;;;4960041;28;20234;-85
2023/01/08 13:08:52;;;;;;;7.50;7.30;;;7.00;99.90;;;;;;5045530;28;21099;-85
2023/01/08 13:12:19;;;;;;;7.50;7.30;;;7.00;99.90;;;;;;5029386;28;20315;-85
2023/01/08 13:15:02;;;;;;;7.30;7.10;;;7.00;99.90;;;;;;5045097;28;20317;-86
2023/01/08 13:18:18;;;;;;;7.20;7.00;;;7.10;99.90;;;;;;5041632;28;20271;-86
2023/01/08 13:21:11;;;;;;;7.63;7.43;;;7.10;99.90;;;;;;5040869;28;20232;-85
2023/01/08 13:24:21;;;;;;;7.20;7.00;;;7.10;99.90;;;;;;5040092;28;20223;-85
2023/01/08 13:27:02;;;;;;;7.70;7.50;;;7.20;99.90;;;;;;5039174;28;20238;-85
2023/01/08 13:30:12;;;;;;;7.60;7.40;;;7.30;99.90;;;;;;5038805;28;20223;-85
2023/01/08 13:32:52;;;;;;;7.40;7.20;;;7.30;99.90;;;;;;5025608;28;20289;-87
2023/01/08 13:39:33;;;;;;;7.90;7.70;;;7.30;99.90;;;;;;5034151;28;20246;-86
2023/01/08 14:29:00;;;;;;;7.50;7.30;;;7.40;99.90;;;;;;4886574;29;20229;-84
2023/01/08 14:31:45;;;;;;;7.50;7.30;;;7.40;99.90;;;;;;4889826;29;20260;-83
2023/01/08 14:38:49;;;;;;;7.60;7.40;;;7.50;99.90;;;;;;4772730;30;20229;-86
2023/01/08 14:53:19;;;;;;;;;;;;;;;;;;;;;
2023/01/08 14:56:47;;;;;;;7.40;7.20;;;7.10;99.90;;;;;;4918448;29;20283;-87
2023/01/08 15:12:38;;;;;;;7.70;7.50;;;7.10;99.90;;;;;;5036466;28;20247;-85
2023/01/08 15:15:26;;;;;;;7.70;7.50;;;7.10;99.90;;;;;;5038967;28;20220;-84
2023/01/08 15:17:56;;;;;;;7.50;7.30;;;7.10;99.90;;;;;;5002678;28;20285;-83
2023/01/08 15:31:47;;;;;;;7.30;7.10;;;7.00;99.90;;;;;;4882735;29;20217;-87
2023/01/08 15:34:22;;;;;;;7.60;7.40;;;7.00;99.90;;;;;;4884640;29;20237;-86
2023/01/08 15:59:10;;;;;;;7.63;7.43;;;6.90;99.90;;;;;;5249045;23;20240;-85
2023/01/08 16:01:46;;;;;;;8.30;8.10;;;6.80;99.90;;;;;;5028897;28;20391;-86
2023/01/08 16:04:18;;;;;;;8.00;7.80;;;6.90;99.90;;;;;;5042035;28;20462;-83
2023/01/08 16:06:52;;;;;;;7.83;7.63;;;6.90;99.90;;;;;;5042652;28;20298;-85
2023/01/08 16:09:21;;;;;;;7.57;7.37;;;6.90;99.90;;;;;;5039893;28;20239;-84
2023/01/08 16:12:11;;;;;;;7.63;7.43;;;6.90;99.90;;;;;;5022169;28;20255;-85
2023/01/08 16:20:22;;;;;;;7.50;7.30;;;6.90;99.90;;;;;;5018982;28;20232;-86
2023/01/08 16:22:57;;;;;;;7.57;7.37;;;6.90;99.90;;;;;;5019237;28;20228;-87
2023/01/08 16:25:30;;;;;;;7.60;7.40;;;6.90;99.90;;;;;;5023953;28;20235;-87
2023/01/08 16:27:58;;;;;;;7.70;7.50;;;6.90;99.90;;;;;;5023801;28;20236;-87
2023/01/08 16:30:27;;;;;;;7.70;7.50;;;6.90;99.90;;;;;;5028655;28;20232;-86
2023/01/08 16:33:06;;;;;;;7.70;7.50;;;6.90;99.90;;;;;;5019953;28;20726;-87
2023/01/08 16:35:35;;;;;;;7.47;7.27;;;6.80;99.90;;;;;;5020306;28;20772;-86
2023/01/08 16:38:05;;;;;;;7.40;7.20;;;6.80;99.90;;;;;;5017517;28;20320;-85
2023/01/08 16:40:34;;;;;;;7.17;6.97;;;6.80;99.90;;;;;;5013159;28;20237;-86
2023/01/08 16:43:04;;;;;;;7.27;7.07;;;6.80;99.90;;;;;;4999024;28;20714;-84
2023/01/08 16:45:33;;;;;;;7.37;7.17;;;6.80;99.90;;;;;;5016492;28;20291;-84
2023/01/08 16:48:12;;;;;;;7.70;7.50;;;6.80;99.90;;;;;;5017520;28;20725;-86
2023/01/08 16:50:41;;;;;;;7.63;7.43;;;6.80;99.90;;;;;;5018157;28;20236;-85
2023/01/08 16:53:10;;;;;;;7.60;7.40;;;6.80;99.90;;;;;;5018581;28;20232;-85
2023/01/08 16:58:28;;;;;;;7.50;7.30;;;6.80;99.90;;;;;;5019715;28;20223;-87
2023/01/08 17:00:56;;;;;;;7.40;7.20;;;6.80;99.90;;;;;;5009354;28;20221;-87
2023/01/08 17:03:34;;;;;;;7.30;7.10;;;6.80;99.90;;;;;;4999396;28;20316;-87
2023/01/08 17:06:12;;;;;;;7.30;7.10;;;6.80;99.90;;;;;;5001271;28;20278;-86
2023/01/08 17:08:45;;;;;;;7.33;7.13;;;6.90;99.90;;;;;;5020758;28;20208;-87
2023/01/08 17:11:22;;;;;;;7.30;7.10;;;6.90;99.90;;;;;;5022776;28;20231;-87
2023/01/08 17:13:50;;;;;;;7.20;7.00;;;6.90;99.90;;;;;;5021707;28;20236;-86
2023/01/08 17:16:21;;;;;;;7.20;7.00;;;6.80;99.90;;;;;;5022144;28;20260;-87
2023/01/08 17:18:55;;;;;;;7.23;7.03;;;6.80;99.90;;;;;;5021537;28;20225;-87
2023/01/08 17:21:28;;;;;;;7.23;7.03;;;6.80;99.90;;;;;;5020813;28;20230;-87
2023/01/08 17:29:23;;;;;;;7.40;7.20;;;6.80;99.90;;;;;;5005545;28;20244;-87
2023/01/08 17:31:52;;;;;;;7.20;7.00;;;6.80;99.90;;;;;;5001511;28;20231;-84
2023/01/08 17:34:31;;;;;;;7.40;7.20;;;6.80;99.90;;;;;;5002416;28;20225;-86
2023/01/08 17:37:00;;;;;;;7.40;7.20;;;6.80;99.90;;;;;;5003932;28;20232;-85
2023/01/08 17:39:30;;;;;;;7.57;7.37;;;6.80;99.90;;;;;;5004338;28;20235;-85
2023/01/08 17:44:55;;;;;;;7.80;7.60;;;6.70;99.90;;;;;;5002665;28;20212;-86
2023/01/08 17:47:24;;;;;;;7.50;7.30;;;6.70;99.90;;;;;;5002239;28;20233;-86
2023/01/08 17:50:22;;;;;;;7.50;7.30;;;6.70;99.90;;;;;;5004402;28;20246;-86
2023/01/08 17:53:00;;;;;;;7.50;7.30;;;6.70;99.90;;;;;;5022022;28;20236;-87
2023/01/08 17:55:28;;;;;;;7.37;7.17;;;6.70;99.90;;;;;;5034508;28;20216;-87
2023/01/08 17:57:57;;;;;;;7.47;7.27;;;6.70;99.90;;;;;;5024358;28;20319;-87
2023/01/08 18:00:27;;;;;;;7.40;7.20;;;6.80;99.90;;;;;;5021476;28;20236;-87
2023/01/08 18:02:56;;;;;;;7.30;7.10;;;6.80;99.90;;;;;;5020909;28;20287;-87
2023/01/08 18:05:34;;;;;;;7.60;7.40;;;6.80;99.90;;;;;;5022024;28;20242;-87
2023/01/08 18:08:12;;;;;;;7.50;7.30;;;6.80;99.90;;;;;;5022165;28;20236;-86
2023/01/08 18:10:41;;;;;;;7.30;7.10;;;6.80;99.90;;;;;;5022070;28;20278;-87
2023/01/08 18:13:11;;;;;;;7.57;7.37;;;6.80;99.90;;;;;;5021933;28;20239;-86
2023/01/08 18:15:40;;;;;;;7.40;7.20;;;6.70;99.90;;;;;;5023978;28;20222;-86
2023/01/08 18:18:24;;;;;;;7.33;7.13;;;6.70;99.90;;;;;;5024799;28;20239;-86
2023/01/08 18:20:56;;;;;;;7.40;7.20;;;6.70;99.90;;;;;;5021916;28;20243;-87
2023/01/08 18:23:28;;;;;;;7.70;7.50;;;6.70;99.90;;;;;;5025283;28;20328;-87
2023/01/08 18:26:08;;;;;;;7.53;7.33;;;6.70;99.90;;;;;;5028457;28;20263;-85
2023/01/08 18:28:49;;;;;;;7.47;7.27;;;6.70;99.90;;;;;;5029270;28;20239;-85
2023/01/08 18:31:23;;;;;;;7.60;7.40;;;6.70;99.90;;;;;;5033637;28;20235;-87